Twillingate, Canada
Current Conditions -  °F | °C
As of 2:00 PM on Monday 24 Nov 2014 (Local Time) from CYQX Reporting Station
Broken Clouds Broken Clouds  
Wind Chill: 23°   Ceiling: 26000
Heat Index: 30°   Visibility: 20mi
Dew Point: 10°   Wind: 8mph
Humidity: 44%   Direction: 280°W
Pressure: 30.31"   Gusts: NA
Location:  49.66°N, 54.78°W
Report Text: CYQX 241700Z 28007KT 20SM BKN260 M01/M12 A3031 RMK CI7 SC TR SLP273
Loading
Personal Weather Stations






























Interactive Weather Map New forecast layout! Learn more

10-Day Weather Forecast

Advertisements
Track Severe Weather on mobile